createdAt,value
2022-11-05T00:02:32.687Z,85.35
2022-11-05T00:05:55.304Z,85.47
2022-11-05T00:09:28.143Z,85.56
2022-11-05T00:12:49.890Z,85.69
2022-11-05T00:16:15.492Z,85.72
2022-11-05T00:27:10.635Z,86.09
2022-11-05T00:30:18.253Z,86.18
2022-11-05T00:33:21.212Z,86.16
2022-11-05T00:36:34.157Z,86.06
2022-11-05T00:39:56.779Z,85.86
2022-11-05T00:43:18.525Z,85.81
2022-11-05T00:46:21.409Z,86.03
2022-11-05T00:49:35.119Z,85.82
2022-11-05T00:52:57.901Z,85.95
2022-11-05T00:56:02.173Z,85.83
2022-11-05T00:59:05.225Z,86.11
2022-11-05T01:02:08.184Z,86.06
2022-11-05T01:05:11.206Z,85.94
2022-11-05T01:08:15.875Z,86.16
2022-11-05T01:11:37.303Z,85.90
2022-11-05T01:14:40.349Z,85.97
2022-11-05T01:17:44.603Z,86.33
2022-11-05T01:20:48.041Z,86.24
2022-11-05T01:24:10.123Z,86.17
2022-11-05T01:27:13.132Z,86.04
2022-11-05T01:30:16.167Z,86.13
2022-11-05T01:33:19.026Z,86.15
2022-11-05T01:36:21.996Z,86.07
2022-11-05T01:39:24.805Z,86.15
2022-11-05T01:42:28.813Z,86.05
2022-11-05T01:45:31.792Z,86.07
2022-11-05T01:48:36.399Z,86.14
2022-11-05T01:51:40.185Z,86.01
2022-11-05T01:54:43.872Z,86.11
2022-11-05T01:57:47.251Z,86.08
2022-11-05T02:00:50.493Z,86.20
2022-11-05T02:03:58.351Z,86.22
2022-11-05T02:07:03.252Z,86.13
2022-11-05T02:10:09.662Z,86.30
2022-11-05T02:13:12.818Z,86.20
2022-11-05T02:16:34.847Z,86.24
2022-11-05T02:20:01.746Z,86.28
2022-11-05T02:23:54.004Z,86.25
2022-11-05T02:27:15.000Z,86.12
2022-11-05T02:30:53.871Z,86.32
2022-11-05T02:34:15.756Z,86.36
2022-11-05T02:37:32.646Z,86.37
2022-11-05T02:45:46.481Z,86.33
2022-11-05T02:49:20.651Z,86.12
2022-11-05T02:52:33.967Z,86.28
2022-11-05T02:55:47.488Z,86.36
2022-11-05T02:58:51.322Z,86.55
2022-11-05T03:02:43.302Z,86.40
2022-11-05T03:06:21.785Z,86.50
2022-11-05T03:10:00.357Z,86.35
2022-11-05T03:13:19.501Z,86.51
2022-11-05T03:16:31.666Z,86.40
2022-11-05T03:19:53.900Z,86.53
2022-11-05T03:23:09.962Z,86.37
2022-11-05T03:26:18.133Z,86.41
2022-11-05T03:29:38.828Z,86.20
2022-11-05T03:32:50.067Z,86.48
2022-11-05T03:35:57.115Z,86.37
2022-11-05T03:39:05.236Z,86.34
2022-11-05T03:42:13.383Z,86.28
2022-11-05T03:45:21.730Z,86.28
2022-11-05T03:48:28.178Z,86.29
2022-11-05T03:51:48.772Z,86.32
2022-11-05T03:54:55.240Z,86.21
2022-11-05T03:58:01.939Z,86.27
2022-11-05T04:01:39.105Z,86.17
2022-11-05T04:05:14.090Z,85.97
2022-11-05T04:08:36.232Z,86.12
2022-11-05T04:12:00.904Z,86.07
2022-11-05T04:15:07.635Z,86.15
2022-11-05T04:18:13.403Z,86.04
2022-11-05T04:21:35.686Z,86.10
2022-11-05T04:24:41.579Z,86.08
2022-11-05T04:27:47.837Z,86.02
2022-11-05T04:30:53.163Z,86.00
2022-11-05T04:34:03.015Z,85.82
2022-11-05T04:37:31.780Z,85.83
2022-11-05T04:40:34.834Z,85.76
2022-11-05T04:43:37.579Z,85.86
2022-11-05T04:46:43.044Z,85.69
2022-11-05T04:49:45.915Z,85.79
2022-11-05T04:52:48.977Z,85.81
2022-11-05T04:55:51.933Z,85.70
2022-11-05T04:58:56.561Z,85.73
2022-11-05T05:01:59.542Z,85.56
2022-11-05T05:05:18.229Z,85.63
2022-11-05T05:08:21.070Z,85.38
2022-11-05T05:11:24.977Z,85.54
2022-11-05T05:14:27.863Z,85.43
2022-11-05T05:17:30.909Z,85.40
2022-11-05T05:20:55.415Z,85.39
2022-11-05T05:23:58.996Z,85.25
2022-11-05T05:27:01.838Z,85.05
2022-11-05T05:30:10.663Z,85.24
2022-11-05T05:36:41.901Z,85.17
2022-11-05T05:40:01.840Z,85.21
2022-11-05T05:43:33.755Z,85.17
2022-11-05T05:47:16.433Z,85.20
2022-11-05T05:59:32.108Z,84.93
2022-11-05T06:02:35.666Z,85.00
2022-11-05T06:06:00.521Z,84.92
2022-11-05T06:17:47.185Z,84.80
2022-11-05T06:20:53.763Z,84.87
2022-11-05T06:24:47.324Z,84.70
2022-11-05T06:27:50.273Z,84.80
2022-11-05T06:30:53.223Z,84.91
2022-11-05T06:33:56.105Z,84.88
2022-11-05T06:36:59.962Z,84.85
2022-11-05T06:40:03.179Z,84.75
2022-11-05T06:43:06.038Z,84.83
2022-11-05T06:46:10.583Z,84.86
2022-11-05T06:49:13.931Z,84.85
2022-11-05T06:52:17.445Z,84.81
2022-11-05T06:55:20.710Z,84.79
2022-11-05T06:58:24.069Z,84.90
2022-11-05T07:01:29.698Z,84.91
2022-11-05T07:04:33.844Z,84.82
2022-11-05T07:07:42.905Z,84.99
2022-11-05T07:15:04.430Z,84.97
2022-11-05T07:18:23.476Z,84.91
2022-11-05T07:21:50.045Z,84.85
2022-11-05T07:24:56.303Z,84.80
2022-11-05T07:28:23.171Z,84.87
2022-11-05T07:31:32.994Z,84.69
2022-11-05T07:35:14.818Z,84.78
2022-11-05T07:38:24.400Z,84.68
2022-11-05T07:41:34.340Z,84.62
2022-11-05T07:44:41.706Z,84.62
2022-11-05T07:48:01.288Z,84.49
2022-11-05T07:51:16.947Z,84.36
2022-11-05T07:54:28.757Z,84.25
2022-11-05T07:57:54.679Z,84.21
2022-11-05T08:01:14.041Z,84.31
2022-11-05T08:04:26.174Z,84.34
2022-11-05T08:07:38.862Z,84.43
2022-11-05T08:10:56.686Z,84.35
2022-11-05T08:18:15.945Z,84.16
2022-11-05T08:22:13.182Z,84.13
2022-11-05T08:25:16.747Z,84.01
2022-11-05T08:28:21.780Z,83.99
2022-11-05T08:31:24.783Z,84.01
2022-11-05T08:34:27.755Z,83.91
2022-11-05T08:37:44.674Z,83.88
2022-11-05T08:40:56.146Z,83.86
2022-11-05T08:43:59.196Z,83.88
2022-11-05T08:47:02.454Z,83.63
2022-11-05T08:50:15.395Z,83.70
2022-11-05T08:53:30.649Z,83.67
2022-11-05T08:57:17.084Z,83.62
2022-11-05T09:00:15.942Z,83.43
2022-11-05T09:03:22.601Z,83.44
2022-11-05T09:06:31.776Z,83.21
2022-11-05T09:09:43.609Z,83.11
2022-11-05T09:12:52.949Z,83.17
2022-11-05T09:15:59.038Z,83.03
2022-11-05T09:19:07.773Z,82.89
2022-11-05T09:22:14.288Z,82.77
2022-11-05T09:25:18.040Z,82.68
2022-11-05T09:28:24.951Z,82.59
2022-11-05T09:32:22.093Z,82.62
2022-11-05T09:35:25.148Z,82.45
2022-11-05T09:38:36.175Z,82.42
2022-11-05T09:41:43.771Z,82.25
2022-11-05T09:45:01.592Z,82.15
2022-11-05T09:52:51.321Z,82.39
2022-11-05T09:56:03.070Z,82.23
2022-11-05T09:59:49.429Z,82.04
2022-11-05T10:52:24.037Z,75.10
2022-11-05T10:55:36.761Z,75.29
2022-11-05T10:58:56.526Z,75.54
2022-11-05T11:02:22.878Z,75.58
2022-11-05T11:05:36.278Z,75.27
2022-11-05T11:08:42.111Z,75.41
2022-11-05T11:11:45.454Z,75.03
2022-11-05T11:15:12.868Z,75.10
2022-11-05T11:18:40.434Z,74.86
2022-11-05T11:21:43.671Z,74.80
2022-11-05T12:19:24.066Z,65.11
2022-11-05T12:23:30.130Z,65.14
2022-11-05T14:16:48.595Z,67.85
2022-11-05T14:19:51.650Z,68.11
2022-11-05T14:22:53.327Z,68.22
2022-11-05T14:26:10.533Z,68.66
2022-11-05T14:29:23.567Z,68.78
2022-11-05T14:32:42.415Z,68.85
2022-11-05T14:35:45.308Z,68.89
2022-11-05T14:39:04.384Z,68.86
2022-11-05T14:42:05.948Z,69.05
2022-11-05T14:45:13.394Z,69.61
2022-11-05T14:48:40.489Z,69.77
2022-11-05T14:52:19.391Z,69.93
2022-11-05T14:55:37.803Z,69.86
2022-11-05T14:58:41.050Z,69.79
2022-11-05T15:01:42.413Z,69.78
2022-11-05T15:04:45.905Z,70.02
2022-11-05T15:07:55.933Z,70.11
2022-11-05T15:11:37.090Z,70.09
2022-11-05T15:15:00.280Z,70.08
2022-11-05T15:18:26.858Z,70.23
2022-11-05T15:21:33.472Z,70.45
2022-11-05T15:24:35.240Z,70.54
2022-11-05T15:27:54.004Z,70.53
2022-11-05T15:31:27.499Z,70.54
2022-11-05T15:34:35.084Z,70.54
2022-11-05T15:37:36.816Z,70.70
2022-11-05T15:40:38.228Z,70.85
2022-11-05T15:43:48.317Z,70.95
2022-11-05T15:47:14.640Z,71.31
2022-11-05T15:50:16.107Z,71.71
2022-11-05T15:56:56.432Z,71.84
2022-11-05T15:59:58.094Z,71.83
2022-11-05T16:03:07.355Z,71.81
2022-11-05T16:06:09.690Z,71.89
2022-11-05T16:09:23.316Z,72.23
2022-11-05T16:12:27.175Z,72.38
2022-11-05T16:15:32.268Z,72.25
2022-11-05T16:18:39.305Z,72.31
2022-11-05T16:21:54.248Z,72.48
2022-11-05T16:26:04.501Z,72.62
2022-11-05T16:35:00.164Z,73.12
2022-11-05T16:48:55.816Z,72.31
2022-11-05T16:52:02.012Z,72.59
2022-11-05T16:55:09.529Z,72.66
2022-11-05T16:58:27.261Z,72.80
2022-11-05T17:01:56.025Z,72.89
2022-11-05T17:05:03.094Z,73.11
2022-11-05T17:08:05.943Z,73.62
2022-11-05T17:11:13.947Z,74.02
2022-11-05T17:14:16.777Z,74.15
2022-11-05T17:17:32.746Z,74.19
2022-11-05T17:20:46.419Z,73.96
2022-11-05T17:23:50.697Z,74.03
2022-11-05T17:26:53.529Z,74.09
2022-11-05T17:30:05.930Z,74.38
2022-11-05T17:33:12.799Z,73.93
2022-11-05T17:36:17.984Z,73.98
2022-11-05T17:39:31.368Z,74.39
2022-11-05T17:42:35.757Z,74.73
2022-11-05T17:45:53.603Z,75.47
2022-11-05T17:48:56.902Z,75.39
2022-11-05T17:52:02.148Z,75.53
2022-11-05T17:55:16.912Z,75.54
2022-11-05T17:58:22.499Z,75.66
2022-11-05T18:01:31.353Z,75.61
2022-11-05T18:04:45.236Z,75.71
2022-11-05T18:07:51.003Z,75.43
2022-11-05T18:10:54.525Z,75.49
2022-11-05T18:13:57.508Z,75.22
2022-11-05T18:17:03.228Z,75.60
2022-11-05T18:20:11.646Z,75.80
2022-11-05T18:23:16.318Z,75.87
2022-11-05T18:26:26.132Z,75.92
2022-11-05T18:29:34.144Z,76.19
2022-11-05T18:32:37.354Z,76.60
2022-11-05T18:35:42.575Z,76.36
2022-11-05T18:38:48.641Z,76.69
2022-11-05T18:41:51.637Z,76.51
2022-11-05T18:44:54.779Z,76.41
2022-11-05T18:48:00.091Z,76.34
2022-11-05T18:56:00.002Z,76.67
2022-11-05T18:59:35.143Z,76.42
2022-11-05T19:03:53.971Z,76.08
2022-11-05T19:07:18.710Z,75.99
2022-11-05T19:10:57.398Z,75.70
2022-11-05T19:14:20.345Z,75.70
2022-11-05T19:17:41.509Z,75.67
2022-11-05T19:21:10.513Z,75.67
2022-11-05T19:24:34.707Z,75.28
2022-11-05T19:27:48.187Z,75.22
2022-11-05T19:36:55.265Z,75.01
2022-11-05T19:39:59.354Z,74.83
2022-11-05T19:43:05.895Z,74.68
2022-11-05T19:46:13.607Z,74.68
2022-11-05T19:49:28.825Z,74.60
2022-11-05T19:52:31.702Z,74.62
2022-11-05T19:55:34.526Z,74.66
2022-11-05T19:58:37.330Z,74.52
2022-11-05T20:01:40.267Z,74.73
2022-11-05T20:04:43.259Z,74.75
2022-11-05T20:07:52.278Z,74.99
2022-11-05T20:10:56.342Z,74.95
2022-11-05T20:15:26.076Z,75.05
2022-11-05T20:35:38.993Z,74.95
2022-11-05T20:38:41.046Z,74.98
2022-11-05T22:35:39.580Z,68.48
2022-11-05T22:38:42.576Z,69.26
2022-11-05T22:41:45.612Z,69.60
2022-11-05T22:44:48.484Z,70.68
2022-11-05T22:47:51.365Z,71.28
2022-11-05T22:50:54.190Z,71.51
2022-11-05T22:53:57.501Z,71.65
2022-11-05T22:57:12.619Z,71.76
2022-11-05T23:00:17.785Z,72.46
2022-11-05T23:03:28.713Z,72.22
2022-11-05T23:06:52.496Z,72.24
2022-11-05T23:10:17.616Z,73.17
2022-11-05T23:13:37.118Z,73.49
2022-11-05T23:16:59.849Z,73.29
2022-11-05T23:20:24.018Z,73.67
2022-11-05T23:23:45.664Z,73.91
2022-11-05T23:26:54.617Z,73.97
2022-11-05T23:30:33.470Z,73.92
2022-11-05T23:33:37.359Z,74.35
2022-11-05T23:37:02.034Z,74.40
2022-11-05T23:40:20.708Z,75.01
2022-11-05T23:43:43.494Z,74.97
2022-11-05T23:47:14.126Z,75.21
2022-11-05T23:50:39.737Z,75.76
2022-11-05T23:55:21.906Z,76.07
2022-11-05T23:58:42.805Z,76.51
